Rotterdam Express — DMRX — position and weather

sailwx.info

Track history (hours):
 
Tides and Currents Weather Stations Pressure Air Temp Water Temp Dewpoint Dewpoint Depression Visibility Wind Speed Wind Dir Waves Ship Positions

Rotterdam Express

Last reported at 2017-Sep-20 11:34 UTC. Time now 2017-Sep-21 01:51 UTC.
Position N 37°21' W 000°54'.

Length 294 m; beam 32.2 m; draft 13.6 m.

Type: Ship (hazmat cat A). MMSI: 211335760.

Date/timePositionNaut miles runAvg speedWind from/ knotsBaromVisibWave heightAir tempDewpointWater temp
2017-Sep-20 11:34N 37°21' W 000°54'215.9
2017-Sep-20 11:28N 37°22' W 000°53'3215.3
2017-Sep-20 09:23N 37°46' W 000°26'615.8
2017-Sep-20 08:59N 37°51' W 000°22'816.0
2017-Sep-20 08:31N 37°57' W 000°17'133 4.3
2017-Sep-19 01:34N 39°56' E 001°03'217.6
2017-Sep-19 01:26N 39°58' E 001°04'817.6
2017-Sep-19 00:58N 40°04' E 001°10'817.4
2017-Sep-19 00:30N 40°11' E 001°15'917.2
2017-Sep-19 00:00N 40°19' E 001°22'917.1
2017-Sep-18 23:30N 40°26' E 001°28'816.7
2017-Sep-18 23:00N 40°33' E 001°33'917.0
2017-Sep-18 22:30N 40°41' E 001°39'916.9
2017-Sep-18 21:59N 40°48' E 001°44'817.0
2017-Sep-18 21:30N 40°55' E 001°50'916.9
2017-Sep-18 20:59N 41°02' E 001°57'816.8
2017-Sep-18 20:30N 41°08' E 002°04'916.1
2017-Sep-18 19:58N 41°16' E 002°10'4 0.3
2017-Sep-18 07:14N 41°19' E 002°10'3 7.2
2017-Sep-18 06:53N 41°17' E 002°11'113 9.8
2017-Sep-17 19:17N 42°28' E 004°09'516.7
2017-Sep-17 19:00N 42°32' E 004°13'816.6
2017-Sep-17 18:30N 42°38' E 004°20'816.4
2017-Sep-17 18:01N 42°44' E 004°28'816.4
2017-Sep-17 17:30N 42°50' E 004°35'816.4
2017-Sep-17 17:00N 42°56' E 004°43'816.3
2017-Sep-17 16:31N 43°03' E 004°50'816.4
2017-Sep-17 16:01N 43°09' E 004°57'714.8
2017-Sep-17 15:30N 43°16' E 004°60'714.3
2017-Sep-17 15:00N 43°23' E 004°57'510.2
2017-Sep-17 14:30N 43°25' E 004°51'1 1.0
2017-Sep-17 13:58N 43°24' E 004°51'0 0.0
2017-Sep-17 13:28N 43°24' E 004°51'0 0.0
2017-Sep-17 12:58N 43°24' E 004°51'0 0.0
2017-Sep-17 12:29N 43°24' E 004°51'0 0.0
2017-Sep-17 11:59N 43°24' E 004°51'0 0.0
2017-Sep-17 11:29N 43°24' E 004°51'0 0.0
2017-Sep-17 10:58N 43°24' E 004°51'0 0.0
2017-Sep-17 10:29N 43°24' E 004°51'0 0.0
2017-Sep-17 09:58N 43°24' E 004°51'0 0.0
2017-Sep-17 09:28N 43°24' E 004°51'0 0.0
2017-Sep-17 08:58N 43°24' E 004°51'0 0.0
2017-Sep-17 08:28N 43°24' E 004°51'0 0.0
2017-Sep-17 07:58N 43°24' E 004°51'0 0.0
2017-Sep-17 07:28N 43°24' E 004°51'0 0.0
2017-Sep-17 06:58N 43°24' E 004°51'0 0.0
2017-Sep-17 06:28N 43°24' E 004°51'0 0.0
2017-Sep-17 05:58N 43°24' E 004°51'0 0.0
2017-Sep-17 05:28N 43°24' E 004°51'0 0.0
2017-Sep-17 04:58N 43°24' E 004°51'0 0.0
2017-Sep-17 04:28N 43°24' E 004°51'0 0.0
2017-Sep-17 03:58N 43°24' E 004°51'0 0.0
2017-Sep-17 03:28N 43°24' E 004°51'0 0.0
2017-Sep-17 02:58N 43°24' E 004°51'0 0.0
2017-Sep-17 02:28N 43°24' E 004°51'0 0.0
2017-Sep-17 01:58N 43°24' E 004°51'0 0.0
2017-Sep-17 01:28N 43°24' E 004°51'0 0.0
2017-Sep-17 00:58N 43°24' E 004°51'0 0.0
2017-Sep-17 00:28N 43°24' E 004°51'0 0.0
2017-Sep-16 23:58N 43°24' E 004°51'0 0.0
2017-Sep-16 23:28N 43°24' E 004°51'0 0.0
2017-Sep-16 22:58N 43°24' E 004°51'0 0.0
2017-Sep-16 22:28N 43°24' E 004°51'0 0.0
2017-Sep-16 21:58N 43°24' E 004°51'0 0.0
2017-Sep-16 21:28N 43°24' E 004°51'0 0.0
2017-Sep-16 20:58N 43°24' E 004°51'0 0.0
2017-Sep-16 20:28N 43°24' E 004°51'0 0.0
2017-Sep-16 19:55N 43°24' E 004°51'0 0.0
2017-Sep-16 19:28N 43°24' E 004°51'0 0.0
2017-Sep-16 18:58N 43°24' E 004°51'0 0.0
2017-Sep-16 18:28N 43°24' E 004°51'0 0.0
2017-Sep-16 17:58N 43°24' E 004°51'0 0.0
2017-Sep-16 17:28N 43°24' E 004°51'0 0.0
2017-Sep-16 16:58N 43°24' E 004°51'0 0.1
2017-Sep-16 16:30N 43°24' E 004°51'4 7.4
2017-Sep-16 16:00N 43°23' E 004°56'511.0
2017-Sep-16 15:30N 43°19' E 004°60'4 8.5
2017-Sep-16 15:00N 43°15' E 005°01'5 9.9
2017-Sep-16 14:30N 43°10' E 005°01'5 9.9
2017-Sep-16 14:00N 43°06' E 004°57'1 1.5
2017-Sep-16 13:30N 43°05' E 004°56'1 1.1
2017-Sep-16 13:00N 43°05' E 004°57'510.5
2017-Sep-16 12:30N 43°05' E 005°04'2 3.9
2017-Sep-16 12:00N 43°06' E 005°06'2 3.3
2017-Sep-16 11:30N 43°08' E 005°07'4 7.4
2017-Sep-16 11:00N 43°05' E 005°11'4 7.8
2017-Sep-16 10:30N 43°03' E 005°16'4 8.1
2017-Sep-16 10:00N 43°02' E 005°21'15 7.4
2017-Sep-16 07:57N 42°56' E 005°40'3 3.6
2017-Sep-16 06:59N 42°55' E 005°45'6 7.5
2017-Sep-16 06:10N 42°53' E 005°53'1 7.7
2017-Sep-16 06:00N 42°52' E 005°54'59 8.0
2017-Sep-15 22:35N 43°13' E 007°10'1 8.5
2017-Sep-15 22:29N 43°14' E 007°11'4 8.4
2017-Sep-15 22:00N 43°16' E 007°15'14 8.5
2017-Sep-15 20:21N 43°25' E 007°31'27 8.9
2017-Sep-15 17:14N 43°41' E 008°01'4 8.8
2017-Sep-15 16:45N 43°43' E 008°06'5 9.1
2017-Sep-15 16:15N 43°46' E 008°11'2 9.8
2017-Sep-15 16:00N 43°47' E 008°14'5 9.5
2017-Sep-15 15:26N 43°52' E 008°19'4 9.7
2017-Sep-15 15:00N 43°55' E 008°22'5 9.7
2017-Sep-15 14:30N 43°60' E 008°25'5 9.8
2017-Sep-15 14:00N 44°04' E 008°28'5 9.6
2017-Sep-15 13:30N 44°08' E 008°31'5 9.7
2017-Sep-15 13:00N 44°12' E 008°35'5 9.4
2017-Sep-15 12:30N 44°16' E 008°38'5 9.2
2017-Sep-15 12:00N 44°20' E 008°41'4 8.9
2017-Sep-15 11:30N 44°24' E 008°44'2 4.4
2017-Sep-15 10:58N 44°25' E 008°47'0 0.0
2017-Sep-15 10:28N 44°25' E 008°47'0 0.0
2017-Sep-15 09:58N 44°25' E 008°47'0 0.0
2017-Sep-15 09:28N 44°25' E 008°47'0 0.0
2017-Sep-15 08:58N 44°25' E 008°47'0 0.0
2017-Sep-15 08:28N 44°25' E 008°47'0 0.0
2017-Sep-15 07:58N 44°25' E 008°47'0 0.0
2017-Sep-15 07:25N 44°25' E 008°47'0 0.0
2017-Sep-15 06:58N 44°25' E 008°47'0 0.0
2017-Sep-15 06:28N 44°25' E 008°47'0 0.0
2017-Sep-15 05:58N 44°25' E 008°47'0 0.0
2017-Sep-15 05:28N 44°25' E 008°47'0 0.0
2017-Sep-15 04:58N 44°25' E 008°47'0 0.0
2017-Sep-15 04:28N 44°25' E 008°47'0 0.0
2017-Sep-15 03:58N 44°25' E 008°47'0 0.0
2017-Sep-15 03:28N 44°25' E 008°47'0 0.0
2017-Sep-15 02:58N 44°25' E 008°47'0 0.0
2017-Sep-15 02:28N 44°25' E 008°47'0 0.0
2017-Sep-15 01:58N 44°25' E 008°47'0 0.0
2017-Sep-15 01:28N 44°25' E 008°47'0 0.0
2017-Sep-15 00:58N 44°25' E 008°47'0 0.0
2017-Sep-15 00:28N 44°25' E 008°47'0 0.0
2017-Sep-14 23:55N 44°25' E 008°47'0 0.0
2017-Sep-14 23:28N 44°25' E 008°47'0 0.0
2017-Sep-14 22:58N 44°25' E 008°47'0 0.0
2017-Sep-14 22:28N 44°25' E 008°47'0 0.0
2017-Sep-14 21:58N 44°25' E 008°47'0 0.0
2017-Sep-14 21:28N 44°25' E 008°47'0 0.0
2017-Sep-14 20:58N 44°25' E 008°47'0 0.0
2017-Sep-14 20:28N 44°25' E 008°47'0 0.0
2017-Sep-14 19:58N 44°25' E 008°47'0 0.0
2017-Sep-14 19:28N 44°25' E 008°47'0 0.0
2017-Sep-14 18:58N 44°25' E 008°47'0 0.0
2017-Sep-14 18:28N 44°25' E 008°47'0 0.0
2017-Sep-14 17:58N 44°25' E 008°47'0 0.0
2017-Sep-14 17:25N 44°25' E 008°47'0 0.0
2017-Sep-14 16:58N 44°25' E 008°47'0 0.0
2017-Sep-14 16:28N 44°25' E 008°47'0 0.0
2017-Sep-14 15:58N 44°25' E 008°47'0 0.0
2017-Sep-14 15:30N 44°25' E 008°47'0 0.0
2017-Sep-14 15:00N 44°25' E 008°47'0 0.4
2017-Sep-14 14:30N 44°25' E 008°47'2 4.9
2017-Sep-14 14:00N 44°24' E 008°44'510.3
2017-Sep-14 13:30N 44°19' E 008°45'917.4
2017-Sep-14 13:00N 44°11' E 008°52'816.7
2017-Sep-14 12:30N 44°04' E 008°58'816.8
2017-Sep-14 12:00N 43°57' E 009°04'816.2
2017-Sep-14 11:30N 43°52' E 009°13'816.6
2017-Sep-14 11:00N 43°48' E 009°23'816.6
2017-Sep-14 10:30N 43°44' E 009°33'816.5
2017-Sep-14 10:00N 43°40' E 009°43'816.9
2017-Sep-14 09:30N 43°35' E 009°53'917.1
2017-Sep-14 09:00N 43°31' E 010°03'815.4
2017-Sep-14 08:30N 43°31' E 010°14'4 7.8
2017-Sep-14 08:00N 43°34' E 010°18'1 1.6
2017-Sep-14 07:26N 43°34' E 010°18'0 0.0
2017-Sep-14 06:59N 43°34' E 010°18'0 0.0
2017-Sep-14 06:29N 43°34' E 010°18'0 0.0
2017-Sep-14 05:58N 43°34' E 010°18'0 0.0
2017-Sep-14 05:28N 43°34' E 010°18'0 0.0
2017-Sep-14 05:00N 43°34' E 010°18'0 0.0
2017-Sep-14 04:27N 43°34' E 010°18'0 0.0
2017-Sep-14 03:58N 43°34' E 010°18'0 0.0
2017-Sep-14 03:22N 43°34' E 010°18'0 0.0
2017-Sep-14 02:58N 43°34' E 010°18'0 0.0
2017-Sep-14 02:28N 43°34' E 010°18'0 0.0
2017-Sep-14 01:58N 43°34' E 010°18'0 0.0
2017-Sep-14 01:28N 43°34' E 010°18'0 0.0
2017-Sep-14 00:58N 43°34' E 010°18'0 0.0
2017-Sep-14 00:28N 43°34' E 010°18'0 0.0
2017-Sep-13 23:55N 43°34' E 010°18'0 0.0
2017-Sep-13 23:28N 43°34' E 010°18'0 0.0
2017-Sep-13 22:55N 43°34' E 010°18'0 0.0
2017-Sep-13 22:28N 43°34' E 010°18'0 0.0
2017-Sep-13 21:58N 43°34' E 010°18'0 0.0
2017-Sep-13 21:28N 43°34' E 010°18'0 0.0
2017-Sep-13 20:58N 43°34' E 010°18'0 0.0
2017-Sep-13 20:28N 43°34' E 010°18'0 0.0
2017-Sep-13 19:49N 43°34' E 010°18'0 0.0
2017-Sep-13 19:28N 43°34' E 010°18'0 0.0
2017-Sep-13 18:52N 43°34' E 010°18'0 0.0
2017-Sep-13 18:25N 43°34' E 010°18'0 0.0
2017-Sep-13 17:58N 43°34' E 010°18'0 0.1
2017-Sep-13 17:28N 43°34' E 010°18'0 0.0
2017-Sep-13 16:58N 43°34' E 010°18'0 0.0
2017-Sep-13 16:25N 43°34' E 010°18'0 0.0
2017-Sep-13 15:58N 43°34' E 010°18'0 0.2
2017-Sep-13 15:28N 43°35' E 010°18'0 0.0
2017-Sep-13 14:58N 43°35' E 010°18'0 0.0
2017-Sep-13 14:28N 43°35' E 010°18'0 0.0
2017-Sep-13 13:58N 43°35' E 010°18'0 0.0
2017-Sep-13 13:28N 43°35' E 010°18'0 0.0
2017-Sep-13 12:58N 43°35' E 010°18'0 0.0
2017-Sep-13 12:29N 43°35' E 010°18'0 0.0
2017-Sep-13 11:25N 43°35' E 010°18'0 0.0
2017-Sep-13 10:55N 43°35' E 010°18'0 0.0
2017-Sep-13 10:22N 43°35' E 010°18'0 0.0
2017-Sep-13 09:58N 43°35' E 010°18'0 0.0
2017-Sep-13 09:30N 43°35' E 010°18'0 0.0
2017-Sep-13 08:57N 43°35' E 010°18'0 0.0
2017-Sep-13 08:28N 43°35' E 010°18'0 0.0
2017-Sep-13 08:00N 43°35' E 010°18'1 2.4
2017-Sep-13 07:30N 43°33' E 010°18'3 6.0
2017-Sep-13 07:01N 43°31' E 010°15'1 2.3
2017-Sep-13 06:31N 43°30' E 010°14'1 2.8
2017-Sep-13 06:00N 43°29' E 010°13'3 5.5
2017-Sep-13 05:31N 43°27' E 010°10'4 7.8
2017-Sep-13 05:01N 43°25' E 010°06'1 2.3
2017-Sep-13 04:27N 43°25' E 010°05'1 1.5
2017-Sep-13 04:00N 43°25' E 010°04'1 1.8
2017-Sep-13 03:30N 43°26' E 010°03'1 3.0
2017-Sep-13 03:01N 43°25' E 010°05'2 4.5
2017-Sep-13 02:30N 43°26' E 010°07'1 1.9
2017-Sep-13 02:00N 43°26' E 010°06'1 1.7
2017-Sep-13 01:30N 43°26' E 010°05'2 4.2
2017-Sep-13 01:00N 43°25' E 010°07'1 1.8
2017-Sep-13 00:30N 43°26' E 010°06'3 5.1
2017-Sep-13 00:00N 43°26' E 010°10'1 1.8
2017-Sep-12 23:30N 43°26' E 010°11'1 1.9
2017-Sep-12 23:00N 43°26' E 010°10'1 2.0
2017-Sep-12 22:30N 43°26' E 010°08'1 2.0
2017-Sep-12 22:00N 43°25' E 010°07'1 1.9
2017-Sep-12 21:30N 43°26' E 010°06'2 4.4
2017-Sep-12 21:00N 43°26' E 010°08'1 1.7
2017-Sep-12 20:30N 43°27' E 010°07'1 2.2
2017-Sep-12 20:00N 43°26' E 010°06'1 2.2
2017-Sep-12 19:30N 43°26' E 010°04'1 2.3
2017-Sep-12 19:00N 43°26' E 010°03'1 2.0
2017-Sep-12 18:30N 43°26' E 010°04'3 5.6
2017-Sep-12 18:00N 43°24' E 010°07'3 5.7
2017-Sep-12 17:30N 43°24' E 010°11'2 3.3
2017-Sep-12 17:00N 43°26' E 010°11'1 1.6
2017-Sep-12 16:30N 43°26' E 010°10'1 2.5
2017-Sep-12 16:00N 43°25' E 010°08'1 2.6
2017-Sep-12 15:30N 43°25' E 010°07'1 2.8
2017-Sep-12 15:00N 43°25' E 010°05'2 3.1
2017-Sep-12 14:30N 43°26' E 010°03'2 3.7
2017-Sep-12 14:00N 43°26' E 010°06'1 2.7
2017-Sep-12 13:30N 43°26' E 010°08'1 2.5
2017-Sep-12 13:00N 43°26' E 010°06'1 2.5
2017-Sep-12 12:30N 43°26' E 010°04'1 1.1
2017-Sep-12 12:00N 43°26' E 010°05'0 0.6
2017-Sep-12 11:30N 43°26' E 010°05'2 3.6
2017-Sep-12 11:01N 43°25' E 010°07'1 2.0
2017-Sep-12 10:30N 43°26' E 010°06'3 6.0
2017-Sep-12 10:00N 43°28' E 010°10'3 6.1
2017-Sep-12 09:30N 43°30' E 010°13'611.1
2017-Sep-12 09:00N 43°25' E 010°08'1 1.6
2017-Sep-12 08:30N 43°25' E 010°09'1 1.0
2017-Sep-12 08:00N 43°25' E 010°09'1 2.8
2017-Sep-12 07:30N 43°25' E 010°11'0 1.0
2017-Sep-12 07:00N 43°26' E 010°11'1 2.3
2017-Sep-12 06:30N 43°25' E 010°09'1 2.4
2017-Sep-12 06:00N 43°25' E 010°07'1 1.8
2017-Sep-12 05:30N 43°25' E 010°09'1 1.0
2017-Sep-12 05:00N 43°25' E 010°08'2 3.2
2017-Sep-12 04:30N 43°25' E 010°06'1 1.3
2017-Sep-12 04:00N 43°25' E 010°05'1 3.0
2017-Sep-12 03:30N 43°24' E 010°07'0 0.7
2017-Sep-12 03:00N 43°25' E 010°07'1 1.5
2017-Sep-12 02:30N 43°24' E 010°06'511.0
2017-Sep-12 02:00N 43°21' E 010°00'612.6
2017-Sep-12 01:30N 43°16' E 009°54'612.7
2017-Sep-12 01:00N 43°12' E 009°48'612.5
2017-Sep-12 00:30N 43°08' E 009°42'611.9
2017-Sep-11 23:59N 43°02' E 009°39'2711.8
2017-Sep-11 21:42N 42°36' E 009°48'21911.7
2017-Sep-11 02:58N 38°57' E 009°37'510.7
2017-Sep-11 02:30N 38°56' E 009°31'611.3
2017-Sep-11 02:00N 38°57' E 009°24'612.6
2017-Sep-11 01:29N 39°01' E 009°17'612.4
2017-Sep-11 01:00N 39°04' E 009°11'611.2
2017-Sep-11 00:30N 39°09' E 009°06'4 8.8
2017-Sep-11 00:00N 39°13' E 009°04'0 0.7
2017-Sep-10 23:29N 39°13' E 009°04'0 0.0
2017-Sep-10 22:59N 39°13' E 009°04'0 0.0
2017-Sep-10 22:26N 39°13' E 009°04'0 0.0
2017-Sep-10 21:59N 39°13' E 009°04'0 0.0
2017-Sep-10 21:29N 39°13' E 009°04'0 0.0
2017-Sep-10 20:59N 39°13' E 009°04'0 0.0
2017-Sep-10 20:29N 39°13' E 009°04'0 0.0
2017-Sep-10 19:59N 39°13' E 009°04'0 0.0
2017-Sep-10 19:29N 39°13' E 009°04'0 0.0
2017-Sep-10 18:59N 39°13' E 009°04'0 0.0
2017-Sep-10 18:29N 39°13' E 009°04'0 0.0
2017-Sep-10 17:59N 39°13' E 009°04'0 0.0
2017-Sep-10 17:29N 39°13' E 009°04'0 0.0
2017-Sep-10 16:59N 39°13' E 009°04'0 0.0
2017-Sep-10 16:30N 39°13' E 009°04'2 4.6
2017-Sep-10 16:00N 39°11' E 009°06'4 7.3
2017-Sep-10 15:30N 39°08' E 009°06'5 9.7
2017-Sep-10 14:59N 39°03' E 009°08'1313.3
2017-Sep-10 13:59N 38°50' E 009°05'816.1
2017-Sep-10 13:30N 38°45' E 008°57'816.7
2017-Sep-10 13:00N 38°41' E 008°47'816.7
2017-Sep-10 12:30N 38°38' E 008°38'  
Track history (hours):
 
Tides and Currents Weather Stations Pressure Air Temp Water Temp Dewpoint Dewpoint Depression Visibility Wind Speed Wind Dir Waves Ship Positions

Rotterdam Express

Last reported at 2017-Sep-20 11:34 UTC. Time now 2017-Sep-21 01:51 UTC.
Position N 37°21' W 000°54'.

Length 294 m; beam 32.2 m; draft 13.6 m.

Type: Ship (hazmat cat A). MMSI: 211335760.

Date/timePositionNaut miles runAvg speedWind from/ knotsBaromVisibWave heightAir tempDewpointWater temp
2017-Sep-20 11:34N 37°21' W 000°54'215.9
2017-Sep-20 11:28N 37°22' W 000°53'3215.3
2017-Sep-20 09:23N 37°46' W 000°26'615.8
2017-Sep-20 08:59N 37°51' W 000°22'816.0
2017-Sep-20 08:31N 37°57' W 000°17'133 4.3
2017-Sep-19 01:34N 39°56' E 001°03'217.6
2017-Sep-19 01:26N 39°58' E 001°04'817.6
2017-Sep-19 00:58N 40°04' E 001°10'817.4
2017-Sep-19 00:30N 40°11' E 001°15'917.2
2017-Sep-19 00:00N 40°19' E 001°22'917.1
2017-Sep-18 23:30N 40°26' E 001°28'816.7
2017-Sep-18 23:00N 40°33' E 001°33'917.0
2017-Sep-18 22:30N 40°41' E 001°39'916.9
2017-Sep-18 21:59N 40°48' E 001°44'817.0
2017-Sep-18 21:30N 40°55' E 001°50'916.9
2017-Sep-18 20:59N 41°02' E 001°57'816.8
2017-Sep-18 20:30N 41°08' E 002°04'916.1
2017-Sep-18 19:58N 41°16' E 002°10'4 0.3
2017-Sep-18 07:14N 41°19' E 002°10'3 7.2
2017-Sep-18 06:53N 41°17' E 002°11'113 9.8
2017-Sep-17 19:17N 42°28' E 004°09'516.7
2017-Sep-17 19:00N 42°32' E 004°13'816.6
2017-Sep-17 18:30N 42°38' E 004°20'816.4
2017-Sep-17 18:01N 42°44' E 004°28'816.4
2017-Sep-17 17:30N 42°50' E 004°35'816.4
2017-Sep-17 17:00N 42°56' E 004°43'816.3
2017-Sep-17 16:31N 43°03' E 004°50'816.4
2017-Sep-17 16:01N 43°09' E 004°57'714.8
2017-Sep-17 15:30N 43°16' E 004°60'714.3
2017-Sep-17 15:00N 43°23' E 004°57'510.2
2017-Sep-17 14:30N 43°25' E 004°51'1 1.0
2017-Sep-17 13:58N 43°24' E 004°51'0 0.0
2017-Sep-17 13:28N 43°24' E 004°51'0 0.0
2017-Sep-17 12:58N 43°24' E 004°51'0 0.0
2017-Sep-17 12:29N 43°24' E 004°51'0 0.0
2017-Sep-17 11:59N 43°24' E 004°51'0 0.0
2017-Sep-17 11:29N 43°24' E 004°51'0 0.0
2017-Sep-17 10:58N 43°24' E 004°51'0 0.0
2017-Sep-17 10:29N 43°24' E 004°51'0 0.0
2017-Sep-17 09:58N 43°24' E 004°51'0 0.0
2017-Sep-17 09:28N 43°24' E 004°51'0 0.0
2017-Sep-17 08:58N 43°24' E 004°51'0 0.0
2017-Sep-17 08:28N 43°24' E 004°51'0 0.0
2017-Sep-17 07:58N 43°24' E 004°51'0 0.0
2017-Sep-17 07:28N 43°24' E 004°51'0 0.0
2017-Sep-17 06:58N 43°24' E 004°51'0 0.0
2017-Sep-17 06:28N 43°24' E 004°51'0 0.0
2017-Sep-17 05:58N 43°24' E 004°51'0 0.0
2017-Sep-17 05:28N 43°24' E 004°51'0 0.0
2017-Sep-17 04:58N 43°24' E 004°51'0 0.0
2017-Sep-17 04:28N 43°24' E 004°51'0 0.0
2017-Sep-17 03:58N 43°24' E 004°51'0 0.0
2017-Sep-17 03:28N 43°24' E 004°51'0 0.0
2017-Sep-17 02:58N 43°24' E 004°51'0 0.0
2017-Sep-17 02:28N 43°24' E 004°51'0 0.0
2017-Sep-17 01:58N 43°24' E 004°51'0 0.0
2017-Sep-17 01:28N 43°24' E 004°51'0 0.0
2017-Sep-17 00:58N 43°24' E 004°51'0 0.0
2017-Sep-17 00:28N 43°24' E 004°51'0 0.0
2017-Sep-16 23:58N 43°24' E 004°51'0 0.0
2017-Sep-16 23:28N 43°24' E 004°51'0 0.0
2017-Sep-16 22:58N 43°24' E 004°51'0 0.0
2017-Sep-16 22:28N 43°24' E 004°51'0 0.0
2017-Sep-16 21:58N 43°24' E 004°51'0 0.0
2017-Sep-16 21:28N 43°24' E 004°51'0 0.0
2017-Sep-16 20:58N 43°24' E 004°51'0 0.0
2017-Sep-16 20:28N 43°24' E 004°51'0 0.0
2017-Sep-16 19:55N 43°24' E 004°51'0 0.0
2017-Sep-16 19:28N 43°24' E 004°51'0 0.0
2017-Sep-16 18:58N 43°24' E 004°51'0 0.0
2017-Sep-16 18:28N 43°24' E 004°51'0 0.0
2017-Sep-16 17:58N 43°24' E 004°51'0 0.0
2017-Sep-16 17:28N 43°24' E 004°51'0 0.0
2017-Sep-16 16:58N 43°24' E 004°51'0 0.1
2017-Sep-16 16:30N 43°24' E 004°51'4 7.4
2017-Sep-16 16:00N 43°23' E 004°56'511.0
2017-Sep-16 15:30N 43°19' E 004°60'4 8.5
2017-Sep-16 15:00N 43°15' E 005°01'5 9.9
2017-Sep-16 14:30N 43°10' E 005°01'5 9.9
2017-Sep-16 14:00N 43°06' E 004°57'1 1.5
2017-Sep-16 13:30N 43°05' E 004°56'1 1.1
2017-Sep-16 13:00N 43°05' E 004°57'510.5
2017-Sep-16 12:30N 43°05' E 005°04'2 3.9
2017-Sep-16 12:00N 43°06' E 005°06'2 3.3
2017-Sep-16 11:30N 43°08' E 005°07'4 7.4
2017-Sep-16 11:00N 43°05' E 005°11'4 7.8
2017-Sep-16 10:30N 43°03' E 005°16'4 8.1
2017-Sep-16 10:00N 43°02' E 005°21'15 7.4
2017-Sep-16 07:57N 42°56' E 005°40'3 3.6
2017-Sep-16 06:59N 42°55' E 005°45'6 7.5
2017-Sep-16 06:10N 42°53' E 005°53'1 7.7
2017-Sep-16 06:00N 42°52' E 005°54'59 8.0
2017-Sep-15 22:35N 43°13' E 007°10'1 8.5
2017-Sep-15 22:29N 43°14' E 007°11'4 8.4
2017-Sep-15 22:00N 43°16' E 007°15'14 8.5
2017-Sep-15 20:21N 43°25' E 007°31'27 8.9
2017-Sep-15 17:14N 43°41' E 008°01'4 8.8
2017-Sep-15 16:45N 43°43' E 008°06'5 9.1
2017-Sep-15 16:15N 43°46' E 008°11'2 9.8
2017-Sep-15 16:00N 43°47' E 008°14'5 9.5
2017-Sep-15 15:26N 43°52' E 008°19'4 9.7
2017-Sep-15 15:00N 43°55' E 008°22'5 9.7
2017-Sep-15 14:30N 43°60' E 008°25'5 9.8
2017-Sep-15 14:00N 44°04' E 008°28'5 9.6
2017-Sep-15 13:30N 44°08' E 008°31'5 9.7
2017-Sep-15 13:00N 44°12' E 008°35'5 9.4
2017-Sep-15 12:30N 44°16' E 008°38'5 9.2
2017-Sep-15 12:00N 44°20' E 008°41'4 8.9
2017-Sep-15 11:30N 44°24' E 008°44'2 4.4
2017-Sep-15 10:58N 44°25' E 008°47'0 0.0
2017-Sep-15 10:28N 44°25' E 008°47'0 0.0
2017-Sep-15 09:58N 44°25' E 008°47'0 0.0
2017-Sep-15 09:28N 44°25' E 008°47'0 0.0
2017-Sep-15 08:58N 44°25' E 008°47'0 0.0
2017-Sep-15 08:28N 44°25' E 008°47'0 0.0
2017-Sep-15 07:58N 44°25' E 008°47'0 0.0
2017-Sep-15 07:25N 44°25' E 008°47'0 0.0
2017-Sep-15 06:58N 44°25' E 008°47'0 0.0
2017-Sep-15 06:28N 44°25' E 008°47'0 0.0
2017-Sep-15 05:58N 44°25' E 008°47'0 0.0
2017-Sep-15 05:28N 44°25' E 008°47'0 0.0
2017-Sep-15 04:58N 44°25' E 008°47'0 0.0
2017-Sep-15 04:28N 44°25' E 008°47'0 0.0
2017-Sep-15 03:58N 44°25' E 008°47'0 0.0
2017-Sep-15 03:28N 44°25' E 008°47'0 0.0
2017-Sep-15 02:58N 44°25' E 008°47'0 0.0
2017-Sep-15 02:28N 44°25' E 008°47'0 0.0
2017-Sep-15 01:58N 44°25' E 008°47'0 0.0
2017-Sep-15 01:28N 44°25' E 008°47'0 0.0
2017-Sep-15 00:58N 44°25' E 008°47'0 0.0
2017-Sep-15 00:28N 44°25' E 008°47'0 0.0
2017-Sep-14 23:55N 44°25' E 008°47'0 0.0
2017-Sep-14 23:28N 44°25' E 008°47'0 0.0
2017-Sep-14 22:58N 44°25' E 008°47'0 0.0
2017-Sep-14 22:28N 44°25' E 008°47'0 0.0
2017-Sep-14 21:58N 44°25' E 008°47'0 0.0
2017-Sep-14 21:28N 44°25' E 008°47'0 0.0
2017-Sep-14 20:58N 44°25' E 008°47'0 0.0
2017-Sep-14 20:28N 44°25' E 008°47'0 0.0
2017-Sep-14 19:58N 44°25' E 008°47'0 0.0
2017-Sep-14 19:28N 44°25' E 008°47'0 0.0
2017-Sep-14 18:58N 44°25' E 008°47'0 0.0
2017-Sep-14 18:28N 44°25' E 008°47'0 0.0
2017-Sep-14 17:58N 44°25' E 008°47'0 0.0
2017-Sep-14 17:25N 44°25' E 008°47'0 0.0
2017-Sep-14 16:58N 44°25' E 008°47'0 0.0
2017-Sep-14 16:28N 44°25' E 008°47'0 0.0
2017-Sep-14 15:58N 44°25' E 008°47'0 0.0
2017-Sep-14 15:30N 44°25' E 008°47'0 0.0
2017-Sep-14 15:00N 44°25' E 008°47'0 0.4
2017-Sep-14 14:30N 44°25' E 008°47'2 4.9
2017-Sep-14 14:00N 44°24' E 008°44'510.3
2017-Sep-14 13:30N 44°19' E 008°45'917.4
2017-Sep-14 13:00N 44°11' E 008°52'816.7
2017-Sep-14 12:30N 44°04' E 008°58'816.8
2017-Sep-14 12:00N 43°57' E 009°04'816.2
2017-Sep-14 11:30N 43°52' E 009°13'816.6
2017-Sep-14 11:00N 43°48' E 009°23'816.6
2017-Sep-14 10:30N 43°44' E 009°33'816.5
2017-Sep-14 10:00N 43°40' E 009°43'816.9
2017-Sep-14 09:30N 43°35' E 009°53'917.1
2017-Sep-14 09:00N 43°31' E 010°03'815.4
2017-Sep-14 08:30N 43°31' E 010°14'4 7.8
2017-Sep-14 08:00N 43°34' E 010°18'1 1.6
2017-Sep-14 07:26N 43°34' E 010°18'0 0.0
2017-Sep-14 06:59N 43°34' E 010°18'0 0.0
2017-Sep-14 06:29N 43°34' E 010°18'0 0.0
2017-Sep-14 05:58N 43°34' E 010°18'0 0.0
2017-Sep-14 05:28N 43°34' E 010°18'0 0.0
2017-Sep-14 05:00N 43°34' E 010°18'0 0.0
2017-Sep-14 04:27N 43°34' E 010°18'0 0.0
2017-Sep-14 03:58N 43°34' E 010°18'0 0.0
2017-Sep-14 03:22N 43°34' E 010°18'0 0.0
2017-Sep-14 02:58N 43°34' E 010°18'0 0.0
2017-Sep-14 02:28N 43°34' E 010°18'0 0.0
2017-Sep-14 01:58N 43°34' E 010°18'0 0.0
2017-Sep-14 01:28N 43°34' E 010°18'0 0.0
2017-Sep-14 00:58N 43°34' E 010°18'0 0.0
2017-Sep-14 00:28N 43°34' E 010°18'0 0.0
2017-Sep-13 23:55N 43°34' E 010°18'0 0.0
2017-Sep-13 23:28N 43°34' E 010°18'0 0.0
2017-Sep-13 22:55N 43°34' E 010°18'0 0.0
2017-Sep-13 22:28N 43°34' E 010°18'0 0.0
2017-Sep-13 21:58N 43°34' E 010°18'0 0.0
2017-Sep-13 21:28N 43°34' E 010°18'0 0.0
2017-Sep-13 20:58N 43°34' E 010°18'0 0.0
2017-Sep-13 20:28N 43°34' E 010°18'0 0.0
2017-Sep-13 19:49N 43°34' E 010°18'0 0.0
2017-Sep-13 19:28N 43°34' E 010°18'0 0.0
2017-Sep-13 18:52N 43°34' E 010°18'0 0.0
2017-Sep-13 18:25N 43°34' E 010°18'0 0.0
2017-Sep-13 17:58N 43°34' E 010°18'0 0.1
2017-Sep-13 17:28N 43°34' E 010°18'0 0.0
2017-Sep-13 16:58N 43°34' E 010°18'0 0.0
2017-Sep-13 16:25N 43°34' E 010°18'0 0.0
2017-Sep-13 15:58N 43°34' E 010°18'0 0.2
2017-Sep-13 15:28N 43°35' E 010°18'0 0.0
2017-Sep-13 14:58N 43°35' E 010°18'0 0.0
2017-Sep-13 14:28N 43°35' E 010°18'0 0.0
2017-Sep-13 13:58N 43°35' E 010°18'0 0.0
2017-Sep-13 13:28N 43°35' E 010°18'0 0.0
2017-Sep-13 12:58N 43°35' E 010°18'0 0.0
2017-Sep-13 12:29N 43°35' E 010°18'0 0.0
2017-Sep-13 11:25N 43°35' E 010°18'0 0.0
2017-Sep-13 10:55N 43°35' E 010°18'0 0.0
2017-Sep-13 10:22N 43°35' E 010°18'0 0.0
2017-Sep-13 09:58N 43°35' E 010°18'0 0.0
2017-Sep-13 09:30N 43°35' E 010°18'0 0.0
2017-Sep-13 08:57N 43°35' E 010°18'0 0.0
2017-Sep-13 08:28N 43°35' E 010°18'0 0.0
2017-Sep-13 08:00N 43°35' E 010°18'1 2.4
2017-Sep-13 07:30N 43°33' E 010°18'3 6.0
2017-Sep-13 07:01N 43°31' E 010°15'1 2.3
2017-Sep-13 06:31N 43°30' E 010°14'1 2.8
2017-Sep-13 06:00N 43°29' E 010°13'3 5.5
2017-Sep-13 05:31N 43°27' E 010°10'4 7.8
2017-Sep-13 05:01N 43°25' E 010°06'1 2.3
2017-Sep-13 04:27N 43°25' E 010°05'1 1.5
2017-Sep-13 04:00N 43°25' E 010°04'1 1.8
2017-Sep-13 03:30N 43°26' E 010°03'1 3.0
2017-Sep-13 03:01N 43°25' E 010°05'2 4.5
2017-Sep-13 02:30N 43°26' E 010°07'1 1.9
2017-Sep-13 02:00N 43°26' E 010°06'1 1.7
2017-Sep-13 01:30N 43°26' E 010°05'2 4.2
2017-Sep-13 01:00N 43°25' E 010°07'1 1.8
2017-Sep-13 00:30N 43°26' E 010°06'3 5.1
2017-Sep-13 00:00N 43°26' E 010°10'1 1.8
2017-Sep-12 23:30N 43°26' E 010°11'1 1.9
2017-Sep-12 23:00N 43°26' E 010°10'1 2.0
2017-Sep-12 22:30N 43°26' E 010°08'1 2.0
2017-Sep-12 22:00N 43°25' E 010°07'1 1.9
2017-Sep-12 21:30N 43°26' E 010°06'2 4.4
2017-Sep-12 21:00N 43°26' E 010°08'1 1.7
2017-Sep-12 20:30N 43°27' E 010°07'1 2.2
2017-Sep-12 20:00N 43°26' E 010°06'1 2.2
2017-Sep-12 19:30N 43°26' E 010°04'1 2.3
2017-Sep-12 19:00N 43°26' E 010°03'1 2.0
2017-Sep-12 18:30N 43°26' E 010°04'3 5.6
2017-Sep-12 18:00N 43°24' E 010°07'3 5.7
2017-Sep-12 17:30N 43°24' E 010°11'2 3.3
2017-Sep-12 17:00N 43°26' E 010°11'1 1.6
2017-Sep-12 16:30N 43°26' E 010°10'1 2.5
2017-Sep-12 16:00N 43°25' E 010°08'1 2.6
2017-Sep-12 15:30N 43°25' E 010°07'1 2.8
2017-Sep-12 15:00N 43°25' E 010°05'2 3.1
2017-Sep-12 14:30N 43°26' E 010°03'2 3.7
2017-Sep-12 14:00N 43°26' E 010°06'1 2.7
2017-Sep-12 13:30N 43°26' E 010°08'1 2.5
2017-Sep-12 13:00N 43°26' E 010°06'1 2.5
2017-Sep-12 12:30N 43°26' E 010°04'1 1.1
2017-Sep-12 12:00N 43°26' E 010°05'0 0.6
2017-Sep-12 11:30N 43°26' E 010°05'2 3.6
2017-Sep-12 11:01N 43°25' E 010°07'1 2.0
2017-Sep-12 10:30N 43°26' E 010°06'3 6.0
2017-Sep-12 10:00N 43°28' E 010°10'3 6.1
2017-Sep-12 09:30N 43°30' E 010°13'611.1
2017-Sep-12 09:00N 43°25' E 010°08'1 1.6
2017-Sep-12 08:30N 43°25' E 010°09'1 1.0
2017-Sep-12 08:00N 43°25' E 010°09'1 2.8
2017-Sep-12 07:30N 43°25' E 010°11'0 1.0
2017-Sep-12 07:00N 43°26' E 010°11'1 2.3
2017-Sep-12 06:30N 43°25' E 010°09'1 2.4
2017-Sep-12 06:00N 43°25' E 010°07'1 1.8
2017-Sep-12 05:30N 43°25' E 010°09'1 1.0
2017-Sep-12 05:00N 43°25' E 010°08'2 3.2
2017-Sep-12 04:30N 43°25' E 010°06'1 1.3
2017-Sep-12 04:00N 43°25' E 010°05'1 3.0
2017-Sep-12 03:30N 43°24' E 010°07'0 0.7
2017-Sep-12 03:00N 43°25' E 010°07'1 1.5
2017-Sep-12 02:30N 43°24' E 010°06'511.0
2017-Sep-12 02:00N 43°21' E 010°00'612.6
2017-Sep-12 01:30N 43°16' E 009°54'612.7
2017-Sep-12 01:00N 43°12' E 009°48'612.5
2017-Sep-12 00:30N 43°08' E 009°42'611.9
2017-Sep-11 23:59N 43°02' E 009°39'2711.8
2017-Sep-11 21:42N 42°36' E 009°48'21911.7
2017-Sep-11 02:58N 38°57' E 009°37'510.7
2017-Sep-11 02:30N 38°56' E 009°31'611.3
2017-Sep-11 02:00N 38°57' E 009°24'612.6
2017-Sep-11 01:29N 39°01' E 009°17'612.4
2017-Sep-11 01:00N 39°04' E 009°11'611.2
2017-Sep-11 00:30N 39°09' E 009°06'4 8.8
2017-Sep-11 00:00N 39°13' E 009°04'0 0.7
2017-Sep-10 23:29N 39°13' E 009°04'0 0.0
2017-Sep-10 22:59N 39°13' E 009°04'0 0.0
2017-Sep-10 22:26N 39°13' E 009°04'0 0.0
2017-Sep-10 21:59N 39°13' E 009°04'0 0.0
2017-Sep-10 21:29N 39°13' E 009°04'0 0.0
2017-Sep-10 20:59N 39°13' E 009°04'0 0.0
2017-Sep-10 20:29N 39°13' E 009°04'0 0.0
2017-Sep-10 19:59N 39°13' E 009°04'0 0.0
2017-Sep-10 19:29N 39°13' E 009°04'0 0.0
2017-Sep-10 18:59N 39°13' E 009°04'0 0.0
2017-Sep-10 18:29N 39°13' E 009°04'0 0.0
2017-Sep-10 17:59N 39°13' E 009°04'0 0.0
2017-Sep-10 17:29N 39°13' E 009°04'0 0.0
2017-Sep-10 16:59N 39°13' E 009°04'0 0.0
2017-Sep-10 16:30N 39°13' E 009°04'2 4.6
2017-Sep-10 16:00N 39°11' E 009°06'4 7.3
2017-Sep-10 15:30N 39°08' E 009°06'5 9.7
2017-Sep-10 14:59N 39°03' E 009°08'1313.3
2017-Sep-10 13:59N 38°50' E 009°05'816.1
2017-Sep-10 13:30N 38°45' E 008°57'816.7
2017-Sep-10 13:00N 38°41' E 008°47'816.7
2017-Sep-10 12:30N 38°38' E 008°38'  

Dump ship's entire track history